| time (UTC) | temp C | wind direction | speed KPH | gust KPH | rain 1hr cm | rain 24hr cm | rain mn cm | humidity % | barometer mb |
| 20260504192012 | 26 | 248 | 16.1 | 19.3 | 0.00 | 0.00 | 0.00 | 41 | 1010.6 |
| 20260504191509 | 27 | 224 | 11.3 | 12.9 | 0.00 | 0.00 | 0.00 | 40 | 1010.7 |
| 20260504191005 | 26 | 10 | 6.4 | 22.5 | 0.00 | 0.00 | 0.00 | 41 | 1010.8 |
| 20260504190501 | 26 | 185 | 4.8 | 12.9 | 0.00 | 0.00 | 0.00 | 43 | 1010.8 |
| 20260504185957 | 26 | 225 | 8.0 | 20.9 | 0.00 | 0.00 | 0.00 | 42 | 1011.0 |
| 20260504185455 | 26 | 317 | 3.2 | 25.7 | 0.00 | 0.00 | 0.00 | 43 | 1011.0 |
| 20260504184951 | 26 | 308 | 6.4 | 32.2 | 0.00 | 0.00 | 0.00 | 42 | 1011.3 |
| 20260504184447 | 26 | 309 | 4.8 | 14.5 | 0.00 | 0.00 | 0.00 | 43 | 1011.3 |
| 20260504183942 | 26 | 266 | 4.8 | 9.7 | 0.00 | 0.00 | 0.00 | 45 | 1011.2 |
| 20260504183440 | 26 | 171 | 6.4 | 22.5 | 0.00 | 0.00 | 0.00 | 45 | 1011.3 |
| 20260504182938 | 26 | 323 | 4.8 | 16.1 | 0.00 | 0.00 | 0.00 | 43 | 1011.3 |
| 20260504182434 | 26 | 239 | 1.6 | 11.3 | 0.00 | 0.00 | 0.00 | 44 | 1011.2 |
| 20260504181932 | 26 | 198 | 3.2 | 16.1 | 0.00 | 0.00 | 0.00 | 44 | 1011.3 |
| 20260504181429 | 26 | 214 | 3.2 | 8.0 | 0.00 | 0.00 | 0.00 | 43 | 1011.3 |
| 20260504180927 | 26 | 184 | 11.3 | 20.9 | 0.00 | 0.00 | 0.00 | 45 | 1011.3 |
| 20260504180426 | 26 | 146 | 3.2 | 16.1 | 0.00 | 0.00 | 0.00 | 43 | 1011.4 |
| 20260504175924 | 26 | 231 | 20.9 | 22.5 | 0.00 | 0.00 | 0.00 | 43 | 1011.5 |
| 20260504175420 | 26 | 241 | 8.0 | 8.0 | 0.00 | 0.00 | 0.00 | 44 | 1011.6 |
| 20260504174918 | 26 | 264 | 8.0 | 17.7 | 0.00 | 0.00 | 0.00 | 46 | 1011.6 |
| 20260504174415 | 26 | 323 | 3.2 | 8.0 | 0.00 | 0.00 | 0.00 | 47 | 1011.7 |
| 20260504173913 | 26 | 7 | 3.2 | 12.9 | 0.00 | 0.00 | 0.00 | 44 | 1011.7 |
| 20260504173409 | 25 | 229 | 6.4 | 14.5 | 0.00 | 0.00 | 0.00 | 47 | 1011.9 |
| 20260504172907 | 25 | 219 | 17.7 | 22.5 | 0.00 | 0.00 | 0.00 | 47 | 1011.9 |
| 20260504172403 | 26 | 227 | 3.2 | 12.9 | 0.00 | 0.00 | 0.00 | 47 | 1011.8 |
| 20260504171859 | 26 | 24 | 4.8 | 8.0 | 0.00 | 0.00 | 0.00 | 46 | 1011.9 |
| 20260504171356 | 26 | 199 | 3.2 | 9.7 | 0.00 | 0.00 | 0.00 | 46 | 1011.8 |
| 20260504170853 | 25 | 13 | 4.8 | 9.7 | 0.00 | 0.00 | 0.00 | 48 | 1012.0 |
| 20260504170350 | 25 | 336 | 0.0 | 9.7 | 0.00 | 0.00 | 0.00 | 47 | 1012.1 |
| 20260504160308 | 24 | 279 | 4.8 | 11.3 | 0.00 | 0.00 | 0.00 | 52 | 1012.7 |
| 20260504150733 | 22 | 220 | 4.8 | 6.4 | 0.00 | 0.00 | 0.00 | 56 | 1013.2 |
| 20260504150230 | 22 | 40 | 3.2 | 16.1 | 0.00 | 0.00 | 0.00 | 58 | 1013.2 |
| 20260504141159 | 21 | 244 | 3.2 | 12.9 | 0.00 | 0.00 | 0.00 | 61 | 1013.0 |
| 20260504140656 | 20 | 193 | 3.2 | 9.7 | 0.00 | 0.00 | 0.00 | 62 | 1013.3 |
| 20260504140152 | 20 | 239 | 3.2 | 9.7 | 0.00 | 0.00 | 0.00 | 63 | 1013.3 |
| 20260504130620 | 17 | 206 | 3.2 | 11.3 | 0.00 | 0.00 | 0.00 | 68 | 1013.2 |
| 20260504130117 | 17 | 219 | 6.4 | 9.7 | 0.00 | 0.00 | 0.00 | 68 | 1013.3 |
| 20260504110508 | 13 | 149 | 3.2 | 4.8 | 0.00 | 0.00 | 0.00 | 73 | 1012.6 |
| 20260504100430 | 14 | 193 | 4.8 | 4.8 | 0.00 | 0.00 | 0.00 | 68 | 1012.7 |
| 20260504081823 | 14 | 195 | 4.8 | 9.7 | 0.00 | 0.00 | 0.00 | 63 | 1012.9 |
| 20260504081320 | 14 | 220 | 3.2 | 9.7 | 0.00 | 0.00 | 0.00 | 63 | 1012.9 |
| 20260504080816 | 13 | 274 | 3.2 | 3.2 | 0.00 | 0.00 | 0.00 | 64 | 1012.9 |
| 20260504080313 | 13 | 229 | 3.2 | 6.4 | 0.00 | 0.00 | 0.00 | 64 | 1013.0 |
| 20260504070240 | 13 | 153 | 0.0 | 6.4 | 0.00 | 0.00 | 0.00 | 63 | 1013.5 |
| 20260504060201 | 13 | 145 | 0.0 | 3.2 | 0.00 | 0.00 | 0.00 | 63 | 1014.2 |
| 20260504050629 | 12 | 99 | 1.6 | 3.2 | 0.00 | 0.00 | 0.00 | 65 | 1014.3 |
| 20260504050126 | 13 | 77 | 0.0 | 3.2 | 0.00 | 0.00 | 0.00 | 64 | 1014.4 |
| 20260504045623 | 13 | 79 | 1.6 | 3.2 | 0.00 | 0.00 | 0.00 | 64 | 1014.3 |
| 20260504045118 | 13 | 66 | 1.6 | 3.2 | 0.00 | 0.00 | 0.00 | 63 | 1014.3 |
| 20260504044616 | 13 | 114 | 1.6 | 3.2 | 0.00 | 0.00 | 0.00 | 62 | 1014.6 |
| 20260504044113 | 13 | 176 | 1.6 | 3.2 | 0.00 | 0.00 | 0.00 | 62 | 1014.4 |
| 20260504043610 | 13 | 99 | 4.8 | 4.8 | 0.00 | 0.00 | 0.00 | 62 | 1014.5 |
| 20260504043107 | 13 | 146 | 3.2 | 4.8 | 0.00 | 0.00 | 0.00 | 63 | 1014.6 |
| 20260504042604 | 13 | 180 | 0.0 | 4.8 | 0.00 | 0.00 | 0.00 | 62 | 1014.5 |
| 20260504042101 | 13 | 122 | 3.2 | 3.2 | 0.00 | 0.00 | 0.00 | 62 | 1014.8 |
| 20260504041556 | 13 | 120 | 1.6 | 3.2 | 0.00 | 0.00 | 0.00 | 62 | 1014.6 |
| 20260504041053 | 13 | 99 | 1.6 | 3.2 | 0.00 | 0.00 | 0.00 | 62 | 1014.6 |
| 20260504040550 | 13 | 119 | 3.2 | 3.2 | 0.00 | 0.00 | 0.00 | 61 | 1014.6 |
| 20260504040047 | 13 | 106 | 0.0 | 3.2 | 0.00 | 0.00 | 0.00 | 62 | 1014.8 |
| 20260504035544 | 13 | 162 | 3.2 | 3.2 | 0.00 | 0.00 | 0.00 | 62 | 1014.8 |
| 20260504035040 | 13 | 115 | 1.6 | 3.2 | 0.00 | 0.00 | 0.00 | 62 | 1014.9 |
| 20260504034538 | 13 | 121 | 4.8 | 4.8 | 0.00 | 0.00 | 0.00 | 63 | 1014.8 |
| 20260504034035 | 13 | 50 | 0.0 | 1.6 | 0.00 | 0.00 | 0.00 | 63 | 1014.9 |
| 20260504033533 | 13 | 44 | 0.0 | 1.6 | 0.00 | 0.00 | 0.00 | 63 | 1015.0 |
| 20260504033030 | 12 | 180 | 0.0 | 1.6 | 0.00 | 0.00 | 0.00 | 65 | 1015.0 |
| 20260504032527 | 13 | 60 | 0.0 | 1.6 | 0.00 | 0.00 | 0.00 | 63 | 1015.1 |
| 20260504032023 | 13 | 322 | 0.0 | 3.2 | 0.00 | 0.00 | 0.00 | 62 | 1015.1 |
| 20260504031521 | 13 | 103 | 0.0 | 1.6 | 0.00 | 0.00 | 0.00 | 63 | 1015.1 |
| 20260504031016 | 13 | 180 | 0.0 | 3.2 | 0.00 | 0.00 | 0.00 | 62 | 1015.3 |
| 20260504030514 | 13 | 148 | 0.0 | 3.2 | 0.00 | 0.00 | 0.00 | 61 | 1015.0 |
| 20260504030010 | 13 | 147 | 0.0 | 3.2 | 0.00 | 0.00 | 0.00 | 61 | 1015.3 |
| 20260504025507 | 13 | 50 | 1.6 | 1.6 | 0.00 | 0.00 | 0.00 | 62 | 1015.0 |
| 20260504025004 | 13 | 315 | 0.0 | 3.2 | 0.00 | 0.00 | 0.00 | 62 | 1015.0 |
| 20260504024501 | 13 | 38 | 0.0 | 1.6 | 0.00 | 0.00 | 0.00 | 61 | 1014.9 |
| 20260504023958 | 13 | 66 | 0.0 | 1.6 | 0.00 | 0.00 | 0.00 | 61 | 1014.9 |
| 20260504023455 | 14 | 142 | 0.0 | 1.6 | 0.00 | 0.00 | 0.00 | 60 | 1014.8 |
| 20260504022950 | 14 | 145 | 0.0 | 1.6 | 0.00 | 0.00 | 0.00 | 59 | 1014.8 |
| 20260504022446 | 15 | 215 | 1.6 | 3.2 | 0.00 | 0.00 | 0.00 | 57 | 1014.8 |
| 20260504021943 | 15 | 124 | 1.6 | 3.2 | 0.00 | 0.00 | 0.00 | 56 | 1014.9 |
| 20260504021440 | 15 | 168 | 1.6 | 3.2 | 0.00 | 0.00 | 0.00 | 55 | 1014.9 |
| 20260504020938 | 15 | 145 | 3.2 | 3.2 | 0.00 | 0.00 | 0.00 | 54 | 1014.9 |
| 20260504020434 | 15 | 97 | 1.6 | 4.8 | 0.00 | 0.00 | 0.00 | 54 | 1014.8 |
| 20260504015931 | 15 | 162 | 3.2 | 8.0 | 0.00 | 0.00 | 0.00 | 53 | 1014.6 |
| 20260504015427 | 16 | 115 | 0.0 | 4.8 | 0.00 | 0.00 | 0.00 | 53 | 1014.6 |
| 20260504014923 | 16 | 245 | 0.0 | 4.8 | 0.00 | 0.00 | 0.00 | 53 | 1014.5 |
| 20260504014419 | 16 | 183 | 3.2 | 6.4 | 0.00 | 0.00 | 0.00 | 53 | 1014.3 |
| 20260504013916 | 16 | 151 | 1.6 | 6.4 | 0.00 | 0.00 | 0.00 | 52 | 1014.4 |
| 20260504013415 | 16 | 167 | 3.2 | 4.8 | 0.00 | 0.00 | 0.00 | 52 | 1014.5 |
| 20260504012910 | 16 | 142 | 0.0 | 1.6 | 0.00 | 0.00 | 0.00 | 52 | 1014.4 |
| 20260504012409 | 16 | 163 | 3.2 | 6.4 | 0.00 | 0.00 | 0.00 | 51 | 1014.5 |
| 20260504011905 | 16 | 118 | 1.6 | 3.2 | 0.00 | 0.00 | 0.00 | 51 | 1014.6 |
| 20260504011403 | 16 | 144 | 3.2 | 3.2 | 0.00 | 0.00 | 0.00 | 50 | 1014.6 |
| 20260504010858 | 16 | 166 | 0.0 | 3.2 | 0.00 | 0.00 | 0.00 | 50 | 1014.7 |
| 20260504010354 | 17 | 141 | 3.2 | 4.8 | 0.00 | 0.00 | 0.00 | 49 | 1014.8 |
| 20260504005851 | 17 | 189 | 1.6 | 3.2 | 0.00 | 0.00 | 0.00 | 48 | 1014.7 |
| 20260504005347 | 17 | 147 | 0.0 | 1.6 | 0.00 | 0.00 | 0.00 | 48 | 1014.7 |
| 20260504004845 | 17 | 153 | 1.6 | 4.8 | 0.00 | 0.00 | 0.00 | 46 | 1014.6 |
| 20260504004343 | 17 | 170 | 0.0 | 4.8 | 0.00 | 0.00 | 0.00 | 46 | 1014.7 |
| 20260504003839 | 18 | 240 | 0.0 | 4.8 | 0.00 | 0.00 | 0.00 | 45 | 1014.7 |
| 20260504003336 | 18 | 206 | 0.0 | 3.2 | 0.00 | 0.00 | 0.00 | 45 | 1014.7 |
| 20260504002832 | 18 | 80 | 0.0 | 6.4 | 0.00 | 0.00 | 0.00 | 45 | 1014.7 |
| 20260504002329 | 18 | 197 | 1.6 | 3.2 | 0.00 | 0.00 | 0.00 | 45 | 1014.9 |
| 20260504001827 | 18 | 151 | 0.0 | 3.2 | 0.00 | 0.00 | 0.00 | 44 | 1015.0 |
| 20260504001324 | 18 | 160 | 0.0 | 6.4 | 0.00 | 0.00 | 0.00 | 44 | 1015.0 |
| 20260504000821 | 18 | 44 | 0.0 | 3.2 | 0.00 | 0.00 | 0.00 | 44 | 1015.1 |
| 20260504000318 | 18 | 202 | 1.6 | 8.0 | 0.00 | 0.00 | 0.00 | 43 | 1015.0 |
| 20260503235816 | 19 | 234 | 1.6 | 3.2 | 0.00 | 0.00 | 0.00 | 43 | 1015.0 |
| 20260503235313 | 19 | 197 | 4.8 | 4.8 | 0.00 | 0.00 | 0.00 | 42 | 1015.1 |
| 20260503234810 | 19 | 183 | 4.8 | 6.4 | 0.00 | 0.00 | 0.00 | 41 | 1015.1 |
| 20260503234308 | 19 | 347 | 1.6 | 6.4 | 0.00 | 0.00 | 0.00 | 42 | 1015.3 |
| 20260503233806 | 19 | 213 | 4.8 | 9.7 | 0.00 | 0.00 | 0.00 | 41 | 1015.3 |
| 20260503233301 | 20 | 188 | 0.0 | 6.4 | 0.00 | 0.00 | 0.00 | 43 | 1015.4 |
| 20260503232758 | 20 | 352 | 1.6 | 6.4 | 0.00 | 0.00 | 0.00 | 41 | 1015.6 |
| 20260503232256 | 20 | 295 | 1.6 | 8.0 | 0.00 | 0.00 | 0.00 | 41 | 1015.5 |
| 20260503231754 | 20 | 95 | 3.2 | 9.7 | 0.00 | 0.00 | 0.00 | 40 | 1015.6 |
| 20260503231250 | 20 | 196 | 6.4 | 8.0 | 0.00 | 0.00 | 0.00 | 42 | 1015.7 |
| 20260503230746 | 20 | 274 | 3.2 | 6.4 | 0.00 | 0.00 | 0.00 | 41 | 1015.7 |
| 20260503230243 | 20 | 155 | 1.6 | 6.4 | 0.00 | 0.00 | 0.00 | 41 | 1015.6 |
| 20260503225736 | 20 | 208 | 3.2 | 6.4 | 0.00 | 0.00 | 0.00 | 42 | 1015.7 |
| 20260503225236 | 20 | 174 | 0.0 | 6.4 | 0.00 | 0.00 | 0.00 | 40 | 1015.9 |
| 20260503224733 | 20 | 218 | 0.0 | 14.5 | 0.00 | 0.00 | 0.00 | 40 | 1015.8 |
| 20260503224231 | 20 | 180 | 4.8 | 9.7 | 0.00 | 0.00 | 0.00 | 40 | 1015.7 |
| 20260503223728 | 20 | 206 | 6.4 | 12.9 | 0.00 | 0.00 | 0.00 | 39 | 1015.6 |
| 20260503223225 | 20 | 349 | 3.2 | 9.7 | 0.00 | 0.00 | 0.00 | 40 | 1015.7 |
| 20260503222721 | 20 | 185 | 9.7 | 11.3 | 0.00 | 0.00 | 0.00 | 39 | 1015.8 |
| 20260503222219 | 20 | 142 | 0.0 | 6.4 | 0.00 | 0.00 | 0.00 | 41 | 1015.8 |
| 20260503221718 | 21 | 220 | 6.4 | 9.7 | 0.00 | 0.00 | 0.00 | 38 | 1016.0 |
| 20260503221215 | 21 | 194 | 0.0 | 4.8 | 0.00 | 0.00 | 0.00 | 38 | 1016.0 |
| 20260503220711 | 21 | 239 | 8.0 | 11.3 | 0.00 | 0.00 | 0.00 | 37 | 1016.0 |
| 20260503220207 | 21 | 0 | 3.2 | 6.4 | 0.00 | 0.00 | 0.00 | 39 | 1016.1 |
| 20260503215704 | 21 | 331 | 3.2 | 12.9 | 0.00 | 0.00 | 0.00 | 38 | 1016.1 |
| 20260503215201 | 22 | 346 | 0.0 | 4.8 | 0.00 | 0.00 | 0.00 | 38 | 1016.1 |
| 20260503214700 | 22 | 311 | 3.2 | 3.2 | 0.00 | 0.00 | 0.00 | 36 | 1016.4 |
| 20260503214155 | 21 | 221 | 6.4 | 12.9 | 0.00 | 0.00 | 0.00 | 38 | 1016.4 |
| 20260503213649 | 22 | 283 | 0.0 | 6.4 | 0.00 | 0.00 | 0.00 | 35 | 1016.6 |
| 20260503213145 | 22 | 188 | 0.0 | 8.0 | 0.00 | 0.00 | 0.00 | 38 | 1016.5 |
| 20260503212643 | 22 | 255 | 3.2 | 6.4 | 0.00 | 0.00 | 0.00 | 37 | 1016.6 |
| 20260503212140 | 22 | 122 | 1.6 | 4.8 | 0.00 | 0.00 | 0.00 | 37 | 1016.8 |
| 20260503211638 | 21 | 30 | 0.0 | 9.7 | 0.00 | 0.00 | 0.00 | 38 | 1016.7 |
| 20260503211132 | 22 | 269 | 1.6 | 4.8 | 0.00 | 0.00 | 0.00 | 38 | 1017.0 |
| 20260503210629 | 21 | 306 | 1.6 | 9.7 | 0.00 | 0.00 | 0.00 | 37 | 1017.0 |
| 20260503210126 | 21 | 205 | 6.4 | 16.1 | 0.00 | 0.00 | 0.00 | 38 | 1017.1 |
| 20260503205622 | 21 | 236 | 1.6 | 8.0 | 0.00 | 0.00 | 0.00 | 39 | 1017.3 |
| 20260503205118 | 21 | 259 | 8.0 | 11.3 | 0.00 | 0.00 | 0.00 | 39 | 1017.4 |
| 20260503204615 | 21 | 206 | 8.0 | 14.5 | 0.00 | 0.00 | 0.00 | 39 | 1017.4 |
| 20260503204113 | 21 | 204 | 6.4 | 9.7 | 0.00 | 0.00 | 0.00 | 37 | 1017.5 |
| 20260503203610 | 21 | 203 | 6.4 | 8.0 | 0.00 | 0.00 | 0.00 | 37 | 1017.7 |
| 20260503203108 | 21 | 192 | 11.3 | 12.9 | 0.00 | 0.00 | 0.00 | 37 | 1017.8 |
| 20260503202605 | 21 | 219 | 6.4 | 8.0 | 0.00 | 0.00 | 0.00 | 37 | 1017.8 |
| 20260503202103 | 20 | 218 | 8.0 | 14.5 | 0.00 | 0.00 | 0.00 | 37 | 1018.0 |
| 20260503201601 | 21 | 111 | 3.2 | 9.7 | 0.00 | 0.00 | 0.00 | 38 | 1018.2 |
| 20260503201058 | 21 | 64 | 3.2 | 11.3 | 0.00 | 0.00 | 0.00 | 38 | 1018.3 |
| 20260503200554 | 21 | 79 | 6.4 | 6.4 | 0.00 | 0.00 | 0.00 | 40 | 1018.4 |
| 20260503200050 | 21 | 79 | 3.2 | 6.4 | 0.00 | 0.00 | 0.00 | 38 | 1018.6 |
| 20260503195547 | 20 | 287 | 3.2 | 9.7 | 0.00 | 0.00 | 0.00 | 38 | 1018.8 |
| 20260503195044 | 21 | 209 | 4.8 | 8.0 | 0.00 | 0.00 | 0.00 | 38 | 1018.8 |
| 20260503194541 | 21 | 261 | 4.8 | 16.1 | 0.00 | 0.00 | 0.00 | 40 | 1019.0 |
| 20260503194041 | 21 | 116 | 3.2 | 6.4 | 0.00 | 0.00 | 0.00 | 37 | 1019.1 |
| 20260503193538 | 21 | 278 | 0.0 | 4.8 | 0.00 | 0.00 | 0.00 | 38 | 1019.1 |
| 20260503193033 | 21 | 246 | 4.8 | 8.0 | 0.00 | 0.00 | 0.00 | 36 | 1019.1 |
| 20260503192530 | 21 | 204 | 6.4 | 9.7 | 0.00 | 0.00 | 0.00 | 41 | 1018.9 |